• Join FlightAware (Why Join?)
  • Login
  • US Flag 
11:46AM EDT


 

Airport Tracker/Info


-or-


 

Live Flight TrackerFlight Track Log ✈ UAL5863 ✈ 22-Apr-2013 ✈ CYQB - KORD

Flight Track Log - Related Links

Times and Time Zones

All times are in EDT time to prevent confusion due to time zone crossing. See the UAL5863 flight status page for this flight to view local times or setup timezone preferences in your user account.

Time Position Orientation Groundspeed Altitude Reporting Facility
EDT Latitude Longitude Course Direction KTS MPH feet Rate Location/Type
08:29AM 46.8000 -71.3333 248° West 150 173 1,600  Level Montreal Center
08:30AM 46.8500 -71.2833 34° Northeast 200 230 3,500 1,980 Climbing Montreal Center
08:31AM 46.8500 -71.2333 90° East 210 242 5,600 1,740 Climbing Montreal Center
08:32AM 46.8000 -71.2667 205° Southwest 230 265 7,000 1,800 Climbing Montreal Center
08:33AM 46.5884 -72.2261 249° West  Level FlightAware Approximate
08:33AM 46.7667 -71.3667 244° Southwest 250 288 9,200  Level Montreal Center
08:34AM 46.5507 -72.3647 248° West  Level FlightAware Approximate
08:34AM 46.7333 -71.4667 244° Southwest 270 311 10,800  Level Montreal Center
08:35AM 46.7167 -71.5667 256° West 300 345 11,900 1,200 Climbing Montreal Center
08:36AM 46.7000 -71.6833 258° West 320 368 13,200 1,380 Climbing Montreal Center
08:37AM 46.7167 -71.8333 279° West 320 368 14,700 1,320 Climbing Montreal Center
08:38AM 46.7000 -71.9500 258° West 320 368 15,900 1,080 Climbing Montreal Center
08:39AM 46.6833 -72.0833 260° West 330 380 16,900 1,020 Climbing Montreal Center
08:40AM 46.6500 -72.2000 247° West 340 391 18,000 660 Climbing Montreal Center
08:41AM 46.6167 -72.3500 252° West 340 391 18,300 600 Climbing Montreal Center
08:42AM 46.6000 -72.4833 260° West 350 403 19,300 900 Climbing Montreal Center
08:43AM 46.5667 -72.6000 247° West 350 403 20,200 960 Climbing Montreal Center
08:44AM 46.5167 -72.7500 244° Southwest 360 414 21,300 960 Climbing Montreal Center
08:45AM 46.4833 -72.8667 248° West 360 414 22,200 1,080 Climbing Montreal Center
08:46AM 46.4500 -73.0167 252° West 360 414 23,500 1,200 Climbing Montreal Center
08:47AM 46.4333 -73.1667 261° West 360 414 24,600 900 Climbing Montreal Center
08:48AM 46.3833 -73.3000 242° Southwest 360 414 25,400 840 Climbing Montreal Center
08:49AM 46.3500 -73.4333 250° West 360 414 26,300 1,020 Climbing Montreal Center
08:50AM 46.3167 -73.5667 250° West 360 414 27,500 1,020 Climbing Montreal Center
08:51AM 46.2833 -73.7167 252° West 350 403 28,400 1,080 Climbing Montreal Center
08:52AM 46.2667 -73.8333 258° West 350 403 29,700 1,140 Climbing Montreal Center
08:53AM 46.2167 -73.9500 238° Southwest 340 391 30,700 1,020 Climbing Montreal Center
08:54AM 46.1833 -74.0833 250° West 340 391 31,800 1,080 Climbing Montreal Center
08:55AM 46.1333 -74.2333 244° Southwest 340 391 32,900 1,020 Climbing Montreal Center
08:56AM 46.0833 -74.3167 229° Southwest 340 391 33,900 1,020 Climbing Montreal Center
08:57AM 46.0500 -74.4500 250° West 330 380 35,000 900 Climbing Montreal Center
08:58AM 46.0000 -74.5667 238° Southwest 330 380 35,800 480 Climbing Montreal Center
08:59AM 45.9667 -74.6833 248° West 330 380 36,000 60 Climbing Montreal Center
09:00AM 45.9167 -74.8167 242° Southwest 340 391 36,000  Level Montreal Center
09:01AM 45.8667 -74.9333 238° Southwest 360 414 36,000  Level Montreal Center
09:02AM 45.8167 -75.0833 244° Southwest 370 426 36,000  Level Montreal Center
09:03AM 45.7667 -75.2000 238° Southwest 380 437 36,000  Level Montreal Center
09:04AM 45.7333 -75.3500 252° West 390 449 36,000  Level Montreal Center
09:05AM 45.6833 -75.4833 242° Southwest 400 460 36,000  Level Montreal Center
09:06AM 45.6333 -75.6333 245° Southwest 400 460 36,000  Level Montreal Center
09:07AM 45.5833 -75.7833 245° Southwest 390 449 36,000  Level Montreal Center
09:08AM 45.5333 -75.9000 239° Southwest 390 449 36,000  Level Montreal Center
09:09AM 45.4833 -76.0333 242° Southwest 390 449 36,000  Level Montreal Center
09:10AM 45.4167 -76.1833 238° Southwest 390 449 36,000  Level Montreal Center
09:11AM 45.3667 -76.3333 245° Southwest 390 449 36,000  Level Montreal Center
09:12AM 45.3333 -76.4667 250° West 390 449 36,000  Level Montreal Center
09:13AM 45.3000 -76.6167 253° West 390 449 36,000  Level Montreal Center
09:14AM 45.2667 -76.7500 250° West 390 449 36,000  Level Montreal Center
09:15AM 45.2333 -76.9167 254° West 390 449 36,000  Level Montreal Center
09:16AM 45.2000 -77.0667 253° West 390 449 36,000  Level Montreal Center
09:17AM 45.1667 -77.2000 251° West 390 449 36,000  Level Montreal Center
09:18AM 45.1333 -77.3500 253° West 390 449 36,000  Level Montreal Center
09:19AM 45.1000 -77.5167 254° West 390 449 36,000  Level Montreal Center
09:20AM 45.0667 -77.6500 251° West 400 460 36,000  Level Montreal Center
09:20AM 45.0500 -77.6667 215° Southwest 400 460 36,000  Level Toronto Center
09:21AM 45.0000 -77.8333 247° West 390 449 36,000  Level Toronto Center
09:22AM 44.9667 -77.9833 253° West 390 449 36,000  Level Toronto Center
09:23AM 44.9333 -78.1167 251° West 400 460 36,000  Level Toronto Center
09:24AM 44.8833 -78.2667 245° Southwest 400 460 36,000  Level Toronto Center
09:25AM 44.8833 -78.3833 270° West 400 460 36,000  Level Montreal Center
09:25AM 44.8500 -78.4333 227° Southwest 410 472 36,000  Level Toronto Center
09:26AM 44.8167 -78.5667 251° West 400 460 36,000  Level Toronto Center
09:27AM 44.7833 -78.6833 248° West 400 460 36,000  Level Montreal Center
09:28AM 44.7500 -78.8500 254° West 410 472 36,000  Level Montreal Center
09:29AM 44.7000 -78.9833 242° Southwest 410 472 36,000  Level Montreal Center
09:29AM 44.6833 -79.0167 235° Southwest 410 472 36,000  Level Toronto Center
09:30AM 44.6333 -79.1333 239° Southwest 410 472 36,000  Level Toronto Center
09:31AM 44.5833 -79.2833 245° Southwest 400 460 36,000  Level Toronto Center
09:32AM 44.5333 -79.4167 242° Southwest 400 460 36,000  Level Toronto Center
09:33AM 44.4833 -79.5667 245° Southwest 410 472 36,000  Level Toronto Center
09:34AM 44.4333 -79.7000 242° Southwest 410 472 36,000  Level Toronto Center
09:35AM 44.3667 -79.8667 241° Southwest 410 472 36,000  Level Toronto Center
09:36AM 44.3167 -79.9833 239° Southwest 410 472 36,000  Level Toronto Center
09:37AM 44.2667 -80.1167 242° Southwest 410 472 36,000 -300 Level Toronto Center
09:38AM 44.2167 -80.2833 247° West 410 472 35,500 -840 Descending Toronto Center
09:39AM 44.1667 -80.4000 239° Southwest 400 460 34,400 -780 Descending Toronto Center
09:40AM 44.1167 -80.5333 242° Southwest 400 460 34,000 -240 Descending Toronto Center
09:41AM 44.0667 -80.6833 245° Southwest 400 460 34,000  Level Toronto Center
09:42AM 44.0167 -80.8167 242° Southwest 400 460 34,000  Level Toronto Center
09:43AM 43.9333 -80.9500 229° Southwest 410 472 34,000  Level Toronto Center
09:44AM 43.8833 -81.0833 243° Southwest 410 472 34,000  Level Toronto Center
09:45AM 43.8333 -81.2333 245° Southwest 420 483 34,000  Level Toronto Center
09:46AM 43.7833 -81.3833 245° Southwest 420 483 34,000  Level Toronto Center
09:47AM 43.7333 -81.5333 245° Southwest 420 483 34,000  Level Toronto Center
09:48AM 43.6667 -81.6667 235° Southwest 420 483 34,000  Level Toronto Center
09:49AM 43.6167 -81.8000 243° Southwest 410 472 34,000  Level Toronto Center
09:50AM 43.5500 -81.9333 235° Southwest 410 472 34,000  Level Toronto Center
09:51AM 43.5000 -82.0667 243° Southwest 410 472 34,000  Level Toronto Center
09:52AM 43.4767 -82.1794 254° West 415 478 34,000  Level Cleveland Center
09:53AM 43.4225 -82.3153 241° Southwest 415 478 34,000  Level Cleveland Center
09:54AM 43.3661 -82.4536 241° Southwest 415 478 34,000  Level Cleveland Center
09:55AM 43.3097 -82.5831 239° Southwest 415 478 34,000  Level Cleveland Center
09:56AM 43.2553 -82.7211 242° Southwest 415 478 34,000  Level Cleveland Center
09:57AM 43.2150 -82.8622 249° West 405 466 34,000  Level Cleveland Center
09:58AM 43.1767 -83.0058 250° West 400 460 34,000  Level Cleveland Center
09:59AM 43.1361 -83.1467 249° West 400 460 34,000  Level Cleveland Center
10:00AM 43.0953 -83.2928 249° West 406 467 34,000  Level Cleveland Center
10:01AM 43.0564 -83.4361 250° West 406 467 34,000  Level Cleveland Center
10:02AM 43.0153 -83.5761 248° West 411 473 34,000  Level Cleveland Center
10:03AM 42.9717 -83.7272 249° West 411 473 34,000  Level Cleveland Center
10:04AM 42.9508 -83.8794 259° West 416 479 34,000  Level Cleveland Center
10:05AM 42.9381 -84.0347 264° West 416 479 34,000 -60 Level Cleveland Center
10:06AM 42.9208 -84.1814 261° West 406 467 33,900 -720 Descending Cleveland Center
10:07AM 42.9050 -84.3506 263° West 406 467 32,600 -900 Descending Cleveland Center
10:08AM 42.8892 -84.5275 263° West 407 468 32,000 -300 Descending Chicago Center
10:09AM 42.8739 -84.6786 262° West 404 465 32,000  Level Chicago Center
10:10AM 42.8578 -84.8311 262° West 407 468 32,000  Level Chicago Center
10:11AM 42.8417 -84.9833 262° West 407 468 32,000  Level Chicago Center
10:12AM 42.8261 -85.1378 262° West 411 473 32,000  Level Chicago Center
10:13AM 42.8050 -85.3228 261° West 412 474 32,000 -720 Level Chicago Center
10:14AM 42.7886 -85.4781 262° West 414 476 30,600 -2,340 Descending Chicago Center
10:15AM 42.7622 -85.6281 257° West 405 466 27,200 -3,240 Descending Chicago Center
10:16AM 42.7364 -85.7753 257° West 400 460 24,000 -2,880 Descending Chicago Center
10:17AM 42.7094 -85.9228 256° West 399 459 21,300 -1,980 Descending Chicago Center
10:18AM 42.6819 -86.0733 256° West 406 467 20,000 -660 Descending Chicago Center
10:19AM 42.6544 -86.2250 256° West 409 471 20,000  Level Chicago Center
10:21AM 42.6258 -86.3739 255° West 408 470 20,000 -1,020 Level Chicago Center
10:22AM 42.5925 -86.5525 256° West 407 468 18,000 -2,100 Descending Chicago Center
10:23AM 42.5661 -86.6969 256° West 398 458 15,800 -2,160 Descending Chicago Center
10:24AM 42.5325 -86.8267 251° West 369 425 13,600 -1,980 Descending Chicago Center
10:25AM 42.4992 -86.9528 250° West 358 412 11,800 -1,500 Descending Chicago Center
10:26AM 42.4664 -87.0697 249° West 333 383 10,500 -1,260 Descending Chicago Center
10:27AM 42.4378 -87.1697 249° West 290 334 9,200 -780 Descending Chicago Center
10:28AM 42.4067 -87.2858 250° West 276 318 9,000 -120 Descending Chicago Center
10:29AM 42.3797 -87.3844 250° West 280 322 9,000 -480 Level Chicago Center
10:30AM 42.3378 -87.4733 237° Southwest 275 316 8,100 -960 Descending Chicago Center
10:31AM 42.2897 -87.5422 227° Southwest 256 295 7,100 -840 Descending Chicago Center
10:32AM 42.2400 -87.6136 227° Southwest 261 300 6,400 -840 Descending Chicago Center
10:33AM 42.1911 -87.6811 226° Southwest 255 293 5,400 -1,020 Descending Chicago Center
10:34AM 42.1411 -87.7361 219° Southwest 237 273 4,400 -1,140 Descending Chicago Center
10:35AM 42.0886 -87.7981 221° Southwest 218 251 3,100 -1,200 Descending Chicago Center
10:36AM 42.0500 -87.8333 214° Southwest 150 173 2,100 -900 Descending Chicago TRACON
10:37AM 42.0167 -87.8667 217° Southwest 129 148 1,400 -720 Descending Chicago TRACON
10:39AM 41.9817 -87.9067 217° Southwest  Level Estimated